map of KLHQ home
KLHQ - Airport
Location
City:  Lancaster, Ohio, United States
Name:Fairfield County Airport
ICAO:KLHQ
FAA LID:LHQ

Details
Type:Airport (Airfield)
Use:Public/Civil
Latitude:3945'20"N (39.755638)
Longitude:8239'26"W (-82.657095)
Datum:WGS 1984
Elevation:868 ft (265 m)
Variation:7.36W (WMM2015 magnetic declination)
-0.04 annual change
Runways:1
Longest:5004 × 75 ft (1525 × 23 m), paved

Time
Time Zone:UTC-5 (DST-4)
Local Time:

Weather
METAR:KLHQ 140953Z AUTO 36004KT 10SM CLR M04/M08 A3049 RMK AO2 SLP333 T10441078

Related Locations
Nearby:
Farthest:YAUG: 11390 mi / 18331 km
Augusta [Augusta Airport], WA, AU

Find:

   beyond  
but within

Other Information
Maps:
NOTAMs:
Links:
Sources:

  
  • flag of United States
  • flag of Ohio
  

Sectional Chart

Flight Planning
at skyvector.com

Satellite Image

Google Maps Satellite view

 

Copyright © 2004-2018 Karl L. Swartz. All rights reserved.
The Great Circle Mapper name and logo are trademarks of the Great Circle Mapper.
All other trademarks mentioned herein belong to their respective owners.
Please see credits for attibutions and further copyright information.

  Follow gcmap on Facebook Follow gcmap on Twitter Follow gcmap on Google+ GCmap on LinkedIn

hCard Microformat

Geo Microformat